CTN381 LDSP-LDZA
Flight info
| Callsign | CTN381 |
|---|---|
| Flight time | N/A |
| Altitude | 20000 |
| Route | SIRMI M725 RUDIK |
| Aircraft | A319/M-SDE3FGHIRWY/LB1 |
Departure
| Time | 2026-04-27 14:04 |
|---|---|
| Airport | Split Saint Jerome Airport (LDSP) |
Arrival
| Time | N/A |
|---|---|
| Airport | Zagreb Franjo Tuđman International Airport (LDZA) |
| Time | Latitude | Longitude | Altitude | Speed | Heading |
|---|---|---|---|---|---|
| 2026-04-27 13:33 | 43.53549 | 16.29736 | 79 ft | 0 kts | 176° |
| 2026-04-27 13:58 | 43.53543 | 16.29731 | 83 ft | 1 kts | 215° |
| 2026-04-27 13:58 | 43.53541 | 16.29719 | 82 ft | 1 kts | 256° |
| 2026-04-27 13:58 | 43.53538 | 16.29704 | 81 ft | 2 kts | 256° |
| 2026-04-27 13:58 | 43.53539 | 16.29684 | 81 ft | 3 kts | 278° |
| 2026-04-27 13:59 | 43.53555 | 16.29657 | 84 ft | 5 kts | 319° |
| 2026-04-27 13:59 | 43.53582 | 16.29628 | 82 ft | 6 kts | 322° |
| 2026-04-27 13:59 | 43.53617 | 16.29593 | 86 ft | 5 kts | 331° |
| 2026-04-27 13:59 | 43.53654 | 16.29610 | 87 ft | 9 kts | 48° |
| 2026-04-27 14:00 | 43.53697 | 16.29684 | 86 ft | 10 kts | 52° |
| 2026-04-27 14:00 | 43.53743 | 16.29767 | 86 ft | 12 kts | 53° |
| 2026-04-27 14:00 | 43.53801 | 16.29871 | 80 ft | 15 kts | 52° |
| 2026-04-27 14:00 | 43.53868 | 16.29994 | 76 ft | 16 kts | 53° |
| 2026-04-27 14:01 | 43.53955 | 16.30076 | 76 ft | 16 kts | 15° |
| 2026-04-27 14:01 | 43.54064 | 16.30122 | 77 ft | 16 kts | 25° |
| 2026-04-27 14:01 | 43.54135 | 16.30230 | 70 ft | 16 kts | 52° |
| 2026-04-27 14:01 | 43.54217 | 16.30374 | 75 ft | 22 kts | 52° |
| 2026-04-27 14:02 | 43.54308 | 16.30540 | 72 ft | 22 kts | 52° |
| 2026-04-27 14:02 | 43.54405 | 16.30714 | 77 ft | 23 kts | 50° |
| 2026-04-27 14:02 | 43.54509 | 16.30899 | 68 ft | 25 kts | 53° |
| 2026-04-27 14:02 | 43.54562 | 16.31060 | 62 ft | 12 kts | 29° |
| 2026-04-27 14:03 | 43.54579 | 16.31033 | 67 ft | 7 kts | 265° |
| 2026-04-27 14:03 | 43.54536 | 16.30950 | 71 ft | 12 kts | 233° |
| 2026-04-27 14:03 | 43.54428 | 16.30756 | 76 ft | 57 kts | 232° |
| 2026-04-27 14:03 | 43.54042 | 16.30062 | 70 ft | 123 kts | 232° |
| 2026-04-27 14:04 | 43.53418 | 16.28993 | 394 ft | 147 kts | 229° |
| 2026-04-27 14:04 | 43.52769 | 16.27909 | 1166 ft | 145 kts | 230° |
| 2026-04-27 14:04 | 43.52141 | 16.26827 | 1815 ft | 147 kts | 230° |
| 2026-04-27 14:04 | 43.51454 | 16.25682 | 2177 ft | 167 kts | 227° |
| 2026-04-27 14:05 | 43.50661 | 16.24359 | 2598 ft | 190 kts | 226° |
| 2026-04-27 14:05 | 43.49757 | 16.22869 | 2971 ft | 216 kts | 229° |
| 2026-04-27 14:05 | 43.48742 | 16.21186 | 3487 ft | 241 kts | 228° |
| 2026-04-27 14:05 | 43.47626 | 16.19329 | 4114 ft | 260 kts | 229° |
| 2026-04-27 14:06 | 43.46652 | 16.17196 | 4994 ft | 269 kts | 249° |
| 2026-04-27 14:06 | 43.46445 | 16.14619 | 5941 ft | 278 kts | 276° |
| 2026-04-27 14:06 | 43.47143 | 16.12130 | 6914 ft | 284 kts | 304° |
| 2026-04-27 14:06 | 43.48588 | 16.10273 | 7903 ft | 287 kts | 322° |
| 2026-04-27 14:07 | 43.50205 | 16.08616 | 8870 ft | 291 kts | 323° |
| 2026-04-27 14:07 | 43.51993 | 16.07317 | 9843 ft | 295 kts | 343° |
| 2026-04-27 14:07 | 43.54060 | 16.06834 | 10410 ft | 312 kts | 353° |
| 2026-04-27 14:07 | 43.56288 | 16.06487 | 10899 ft | 329 kts | 354° |
| 2026-04-27 14:08 | 43.58582 | 16.06159 | 11708 ft | 333 kts | 354° |
| 2026-04-27 14:08 | 43.60894 | 16.05838 | 12600 ft | 335 kts | 353° |
| 2026-04-27 14:08 | 43.63218 | 16.05516 | 13528 ft | 336 kts | 353° |
| 2026-04-27 14:08 | 43.65561 | 16.05205 | 14312 ft | 340 kts | 353° |
| 2026-04-27 14:09 | 43.67926 | 16.04898 | 15037 ft | 343 kts | 353° |
| 2026-04-27 14:09 | 43.70318 | 16.04595 | 15746 ft | 347 kts | 353° |
| 2026-04-27 14:09 | 43.72738 | 16.04292 | 16467 ft | 351 kts | 353° |
| 2026-04-27 14:09 | 43.75177 | 16.03975 | 17180 ft | 354 kts | 352° |
| 2026-04-27 14:10 | 43.77637 | 16.03621 | 17902 ft | 357 kts | 352° |
| 2026-04-27 14:10 | 43.80123 | 16.03243 | 18582 ft | 360 kts | 351° |
| 2026-04-27 14:10 | 43.82624 | 16.02856 | 19208 ft | 363 kts | 351° |
| 2026-04-27 14:10 | 43.85146 | 16.02468 | 19810 ft | 366 kts | 352° |
| 2026-04-27 14:11 | 43.87682 | 16.02081 | 20029 ft | 367 kts | 352° |
| 2026-04-27 14:11 | 43.90194 | 16.01698 | 20084 ft | 356 kts | 352° |
| 2026-04-27 14:11 | 43.92632 | 16.01331 | 20096 ft | 351 kts | 352° |
| 2026-04-27 14:11 | 43.95052 | 16.00968 | 20096 ft | 349 kts | 352° |
| 2026-04-27 14:12 | 43.97463 | 16.00609 | 20089 ft | 349 kts | 352° |
| 2026-04-27 14:12 | 43.99879 | 16.00250 | 20092 ft | 349 kts | 352° |
| 2026-04-27 14:12 | 44.02288 | 15.99888 | 20093 ft | 348 kts | 352° |
| 2026-04-27 14:12 | 44.04698 | 15.99522 | 20091 ft | 349 kts | 352° |
| 2026-04-27 14:13 | 44.07110 | 15.99154 | 20091 ft | 348 kts | 352° |
| 2026-04-27 14:13 | 44.09520 | 15.98785 | 20093 ft | 348 kts | 352° |
| 2026-04-27 14:13 | 44.11928 | 15.98418 | 20098 ft | 348 kts | 352° |
| 2026-04-27 14:13 | 44.14370 | 15.98048 | 20103 ft | 348 kts | 352° |
| 2026-04-27 14:14 | 44.16777 | 15.97681 | 20099 ft | 348 kts | 352° |
| 2026-04-27 14:14 | 44.19190 | 15.97314 | 20105 ft | 348 kts | 352° |
| 2026-04-27 14:14 | 44.21599 | 15.96947 | 20106 ft | 349 kts | 352° |
| 2026-04-27 14:14 | 44.24013 | 15.96580 | 20107 ft | 348 kts | 352° |
| 2026-04-27 14:15 | 44.26423 | 15.96216 | 20119 ft | 348 kts | 352° |
| 2026-04-27 14:15 | 44.28833 | 15.95849 | 20119 ft | 348 kts | 352° |
| 2026-04-27 14:15 | 44.31241 | 15.95481 | 20119 ft | 348 kts | 352° |
| 2026-04-27 14:15 | 44.33651 | 15.95113 | 20119 ft | 348 kts | 352° |
| 2026-04-27 14:16 | 44.36054 | 15.94744 | 20120 ft | 348 kts | 352° |
| 2026-04-27 14:16 | 44.38462 | 15.94375 | 20120 ft | 348 kts | 352° |
| 2026-04-27 14:16 | 44.40866 | 15.94007 | 20120 ft | 348 kts | 352° |
| 2026-04-27 14:16 | 44.43272 | 15.93641 | 20125 ft | 348 kts | 352° |
| 2026-04-27 14:17 | 44.45675 | 15.93276 | 20124 ft | 348 kts | 352° |
| 2026-04-27 14:17 | 44.48078 | 15.92909 | 20126 ft | 347 kts | 352° |
| 2026-04-27 14:17 | 44.50482 | 15.92537 | 20129 ft | 347 kts | 352° |
| 2026-04-27 14:17 | 44.52883 | 15.92165 | 20132 ft | 347 kts | 352° |
| 2026-04-27 14:18 | 44.55286 | 15.91796 | 20131 ft | 347 kts | 352° |
| 2026-04-27 14:18 | 44.57685 | 15.91429 | 20126 ft | 347 kts | 352° |
| 2026-04-27 14:18 | 44.60088 | 15.91060 | 20130 ft | 347 kts | 352° |
| 2026-04-27 14:18 | 44.62484 | 15.90693 | 20079 ft | 345 kts | 352° |
| 2026-04-27 14:19 | 44.64841 | 15.90335 | 19834 ft | 338 kts | 352° |
| 2026-04-27 14:19 | 44.67164 | 15.89980 | 19603 ft | 335 kts | 352° |
| 2026-04-27 14:19 | 44.69474 | 15.89625 | 19361 ft | 333 kts | 352° |
| 2026-04-27 14:19 | 44.71779 | 15.89270 | 19118 ft | 333 kts | 352° |
| 2026-04-27 14:20 | 44.74076 | 15.88916 | 18899 ft | 332 kts | 352° |
| 2026-04-27 14:20 | 44.76372 | 15.88561 | 18659 ft | 331 kts | 352° |
| 2026-04-27 14:20 | 44.78658 | 15.88206 | 18422 ft | 330 kts | 352° |
| 2026-04-27 14:20 | 44.80939 | 15.87852 | 18156 ft | 330 kts | 352° |
| 2026-04-27 14:21 | 44.83215 | 15.87497 | 17893 ft | 328 kts | 352° |
| 2026-04-27 14:21 | 44.85481 | 15.87141 | 17625 ft | 327 kts | 352° |
| 2026-04-27 14:21 | 44.87739 | 15.86788 | 17365 ft | 326 kts | 352° |
| 2026-04-27 14:21 | 44.89996 | 15.86437 | 17108 ft | 326 kts | 352° |
| 2026-04-27 14:22 | 44.92241 | 15.86085 | 16845 ft | 325 kts | 352° |
| 2026-04-27 14:22 | 44.94484 | 15.85735 | 16584 ft | 324 kts | 352° |
| 2026-04-27 14:22 | 44.96717 | 15.85390 | 16329 ft | 323 kts | 352° |
| 2026-04-27 14:22 | 44.98949 | 15.85046 | 16074 ft | 322 kts | 352° |
| 2026-04-27 14:23 | 45.01169 | 15.84702 | 15789 ft | 320 kts | 352° |
| 2026-04-27 14:23 | 45.03382 | 15.84358 | 15380 ft | 319 kts | 352° |
| 2026-04-27 14:23 | 45.05589 | 15.84015 | 14992 ft | 318 kts | 352° |
| 2026-04-27 14:23 | 45.07783 | 15.83670 | 14610 ft | 317 kts | 352° |
| 2026-04-27 14:24 | 45.09237 | 15.83439 | 14358 ft | 317 kts | 352° |
| 2026-04-27 14:24 | 45.11429 | 15.83090 | 13971 ft | 317 kts | 351° |
| 2026-04-27 14:24 | 45.13617 | 15.82741 | 13550 ft | 316 kts | 352° |
| 2026-04-27 14:24 | 45.15793 | 15.82394 | 13163 ft | 314 kts | 352° |
| 2026-04-27 14:25 | 45.17952 | 15.82052 | 12771 ft | 312 kts | 352° |
| 2026-04-27 14:25 | 45.20101 | 15.81715 | 12385 ft | 310 kts | 352° |
| 2026-04-27 14:25 | 45.22241 | 15.81380 | 11989 ft | 309 kts | 352° |
| 2026-04-27 14:25 | 45.24372 | 15.81046 | 11601 ft | 307 kts | 352° |
| 2026-04-27 14:26 | 45.26491 | 15.80713 | 11207 ft | 306 kts | 352° |
| 2026-04-27 14:26 | 45.28605 | 15.80381 | 10814 ft | 305 kts | 352° |
| 2026-04-27 14:26 | 45.30709 | 15.80050 | 10412 ft | 304 kts | 352° |
| 2026-04-27 14:26 | 45.32808 | 15.79720 | 10074 ft | 301 kts | 352° |
| 2026-04-27 14:27 | 45.34860 | 15.79399 | 9827 ft | 294 kts | 352° |
| 2026-04-27 14:27 | 45.36888 | 15.79082 | 9366 ft | 294 kts | 351° |
| 2026-04-27 14:27 | 45.38904 | 15.78765 | 9016 ft | 288 kts | 351° |
| 2026-04-27 14:27 | 45.40891 | 15.78452 | 8359 ft | 287 kts | 351° |
| 2026-04-27 14:28 | 45.42865 | 15.78137 | 7733 ft | 284 kts | 351° |
| 2026-04-27 14:28 | 45.44819 | 15.77826 | 7097 ft | 282 kts | 351° |
| 2026-04-27 14:28 | 45.46764 | 15.77517 | 6499 ft | 279 kts | 351° |
| 2026-04-27 14:28 | 45.48680 | 15.77216 | 5898 ft | 275 kts | 351° |
| 2026-04-27 14:29 | 45.50568 | 15.76915 | 5327 ft | 269 kts | 351° |
| 2026-04-27 14:29 | 45.52379 | 15.76773 | 5098 ft | 253 kts | 3° |
| 2026-04-27 14:29 | 45.54031 | 15.77325 | 4986 ft | 239 kts | 20° |
| 2026-04-27 14:29 | 45.55442 | 15.78518 | 4869 ft | 234 kts | 37° |
| 2026-04-27 14:30 | 45.56599 | 15.80095 | 4752 ft | 225 kts | 45° |
| 2026-04-27 14:30 | 45.57642 | 15.81679 | 4707 ft | 211 kts | 45° |
| 2026-04-27 14:30 | 45.58627 | 15.83172 | 4476 ft | 204 kts | 44° |
| 2026-04-27 14:30 | 45.59586 | 15.84617 | 4221 ft | 197 kts | 45° |
| 2026-04-27 14:31 | 45.60517 | 15.86022 | 3960 ft | 186 kts | 46° |
| 2026-04-27 14:31 | 45.61350 | 15.87277 | 3737 ft | 165 kts | 47° |
| 2026-04-27 14:31 | 45.62105 | 15.88416 | 3530 ft | 148 kts | 49° |
| 2026-04-27 14:31 | 45.62788 | 15.89446 | 3344 ft | 140 kts | 49° |
| 2026-04-27 14:32 | 45.63428 | 15.90411 | 3152 ft | 133 kts | 51° |
| 2026-04-27 14:32 | 45.64064 | 15.91373 | 2968 ft | 132 kts | 50° |
| 2026-04-27 14:32 | 45.64696 | 15.92328 | 2799 ft | 132 kts | 49° |
| 2026-04-27 14:32 | 45.65327 | 15.93284 | 2630 ft | 132 kts | 50° |
| 2026-04-27 14:33 | 45.65962 | 15.94245 | 2450 ft | 132 kts | 50° |
| 2026-04-27 14:33 | 45.66589 | 15.95192 | 2285 ft | 131 kts | 50° |
| 2026-04-27 14:33 | 45.67216 | 15.96140 | 2092 ft | 129 kts | 49° |
| 2026-04-27 14:33 | 45.67833 | 15.97075 | 1923 ft | 129 kts | 48° |
| 2026-04-27 14:34 | 45.68461 | 15.98026 | 1749 ft | 129 kts | 50° |
| 2026-04-27 14:34 | 45.69081 | 15.98966 | 1585 ft | 130 kts | 50° |
| 2026-04-27 14:34 | 45.69690 | 15.99889 | 1405 ft | 130 kts | 50° |
| 2026-04-27 14:34 | 45.70311 | 16.00830 | 1226 ft | 130 kts | 49° |
| 2026-04-27 14:35 | 45.70938 | 16.01782 | 1060 ft | 132 kts | 48° |
| 2026-04-27 14:35 | 45.71568 | 16.02734 | 872 ft | 130 kts | 46° |
| 2026-04-27 14:35 | 45.72197 | 16.03680 | 685 ft | 130 kts | 47° |
| 2026-04-27 14:35 | 45.72834 | 16.04616 | 563 ft | 133 kts | 37° |
| 2026-04-27 14:36 | 45.73458 | 16.05591 | 400 ft | 133 kts | 41° |
| 2026-04-27 14:36 | 45.73916 | 16.06450 | 366 ft | 71 kts | 67° |